sensor_id;sensor_type;location;lat;lon;timestamp;P1;durP1;ratioP1;P2;durP2;ratioP2
2868;SDS011;1442;47.448;8.582;2022-12-07T00:01:45;46.70;;;20.75;;
2868;SDS011;1442;47.448;8.582;2022-12-07T00:04:13;39.00;;;20.00;;
2868;SDS011;1442;47.448;8.582;2022-12-07T00:06:43;32.13;;;19.00;;
2868;SDS011;1442;47.448;8.582;2022-12-07T00:09:11;33.40;;;17.23;;
2868;SDS011;1442;47.448;8.582;2022-12-07T00:11:38;38.13;;;18.70;;
2868;SDS011;1442;47.448;8.582;2022-12-07T00:14:06;36.80;;;18.85;;
2868;SDS011;1442;47.448;8.582;2022-12-07T00:16:34;36.75;;;19.70;;
2868;SDS011;1442;47.448;8.582;2022-12-07T00:19:01;35.05;;;18.60;;
2868;SDS011;1442;47.448;8.582;2022-12-07T00:21:29;39.97;;;19.83;;
2868;SDS011;1442;47.448;8.582;2022-12-07T00:23:58;39.10;;;19.05;;
2868;SDS011;1442;47.448;8.582;2022-12-07T00:26:26;38.28;;;18.92;;
2868;SDS011;1442;47.448;8.582;2022-12-07T00:28:54;40.33;;;19.58;;
2868;SDS011;1442;47.448;8.582;2022-12-07T00:31:23;37.22;;;19.27;;
2868;SDS011;1442;47.448;8.582;2022-12-07T00:33:51;40.65;;;20.48;;
2868;SDS011;1442;47.448;8.582;2022-12-07T00:36:18;41.83;;;19.65;;
2868;SDS011;1442;47.448;8.582;2022-12-07T00:38:46;35.35;;;18.35;;
2868;SDS011;1442;47.448;8.582;2022-12-07T00:41:15;37.95;;;20.80;;
2868;SDS011;1442;47.448;8.582;2022-12-07T00:43:42;39.95;;;20.17;;
2868;SDS011;1442;47.448;8.582;2022-12-07T00:46:10;43.03;;;20.55;;
2868;SDS011;1442;47.448;8.582;2022-12-07T00:48:37;38.88;;;20.63;;
2868;SDS011;1442;47.448;8.582;2022-12-07T00:51:04;46.92;;;20.75;;
2868;SDS011;1442;47.448;8.582;2022-12-07T00:53:33;42.17;;;19.63;;
2868;SDS011;1442;47.448;8.582;2022-12-07T00:56:04;37.17;;;19.80;;
2868;SDS011;1442;47.448;8.582;2022-12-07T00:58:32;41.17;;;20.33;;
2868;SDS011;1442;47.448;8.582;2022-12-07T01:01:00;39.10;;;20.95;;
2868;SDS011;1442;47.448;8.582;2022-12-07T01:03:27;40.42;;;20.02;;
2868;SDS011;1442;47.448;8.582;2022-12-07T01:05:55;37.28;;;19.25;;
2868;SDS011;1442;47.448;8.582;2022-12-07T01:08:22;34.53;;;18.98;;
2868;SDS011;1442;47.448;8.582;2022-12-07T01:10:56;34.13;;;18.27;;
2868;SDS011;1442;47.448;8.582;2022-12-07T01:13:24;36.28;;;19.38;;
2868;SDS011;1442;47.448;8.582;2022-12-07T01:15:55;33.90;;;18.40;;
2868;SDS011;1442;47.448;8.582;2022-12-07T01:18:22;35.83;;;18.57;;
2868;SDS011;1442;47.448;8.582;2022-12-07T01:20:56;34.15;;;18.75;;
2868;SDS011;1442;47.448;8.582;2022-12-07T01:23:23;35.13;;;18.65;;
2868;SDS011;1442;47.448;8.582;2022-12-07T01:25:53;39.13;;;20.02;;
2868;SDS011;1442;47.448;8.582;2022-12-07T01:28:20;34.92;;;17.88;;
2868;SDS011;1442;47.448;8.582;2022-12-07T01:30:55;37.85;;;19.23;;
2868;SDS011;1442;47.448;8.582;2022-12-07T01:33:22;37.67;;;19.38;;
2868;SDS011;1442;47.448;8.582;2022-12-07T01:35:49;41.13;;;20.05;;
2868;SDS011;1442;47.448;8.582;2022-12-07T01:38:16;36.03;;;20.50;;
2868;SDS011;1442;47.448;8.582;2022-12-07T01:40:44;40.63;;;20.08;;
2868;SDS011;1442;47.448;8.582;2022-12-07T01:43:14;36.03;;;19.80;;
2868;SDS011;1442;47.448;8.582;2022-12-07T01:45:41;42.00;;;20.80;;
2868;SDS011;1442;47.448;8.582;2022-12-07T01:48:10;36.28;;;20.48;;
2868;SDS011;1442;47.448;8.582;2022-12-07T01:50:39;40.72;;;21.42;;
2868;SDS011;1442;47.448;8.582;2022-12-07T01:53:07;39.35;;;20.58;;
2868;SDS011;1442;47.448;8.582;2022-12-07T01:55:36;37.58;;;20.40;;
2868;SDS011;1442;47.448;8.582;2022-12-07T01:58:04;39.25;;;22.30;;
2868;SDS011;1442;47.448;8.582;2022-12-07T02:00:31;38.25;;;21.85;;
2868;SDS011;1442;47.448;8.582;2022-12-07T02:02:59;38.22;;;20.42;;
2868;SDS011;1442;47.448;8.582;2022-12-07T02:05:29;39.45;;;21.65;;
2868;SDS011;1442;47.448;8.582;2022-12-07T02:07:57;37.70;;;21.45;;
2868;SDS011;1442;47.448;8.582;2022-12-07T02:10:25;40.22;;;22.27;;
2868;SDS011;1442;47.448;8.582;2022-12-07T02:12:54;37.85;;;21.30;;
2868;SDS011;1442;47.448;8.582;2022-12-07T02:15:22;38.13;;;20.90;;
2868;SDS011;1442;47.448;8.582;2022-12-07T02:17:52;42.63;;;21.45;;
2868;SDS011;1442;47.448;8.582;2022-12-07T02:20:24;38.58;;;20.55;;
2868;SDS011;1442;47.448;8.582;2022-12-07T02:23:04;39.78;;;21.75;;
2868;SDS011;1442;47.448;8.582;2022-12-07T02:25:41;40.95;;;21.55;;
2868;SDS011;1442;47.448;8.582;2022-12-07T02:28:17;38.90;;;20.63;;
2868;SDS011;1442;47.448;8.582;2022-12-07T02:30:47;35.72;;;20.48;;
2868;SDS011;1442;47.448;8.582;2022-12-07T02:33:16;36.67;;;19.45;;
2868;SDS011;1442;47.448;8.582;2022-12-07T02:35:44;39.25;;;21.40;;
2868;SDS011;1442;47.448;8.582;2022-12-07T02:38:14;42.58;;;20.70;;
2868;SDS011;1442;47.448;8.582;2022-12-07T02:40:44;36.38;;;20.48;;
2868;SDS011;1442;47.448;8.582;2022-12-07T02:43:14;36.97;;;20.40;;
2868;SDS011;1442;47.448;8.582;2022-12-07T02:45:43;35.28;;;18.95;;
2868;SDS011;1442;47.448;8.582;2022-12-07T02:48:13;33.55;;;20.38;;
2868;SDS011;1442;47.448;8.582;2022-12-07T02:50:43;37.60;;;20.85;;
2868;SDS011;1442;47.448;8.582;2022-12-07T02:55:53;36.60;;;19.55;;
2868;SDS011;1442;47.448;8.582;2022-12-07T02:58:23;34.85;;;20.10;;
2868;SDS011;1442;47.448;8.582;2022-12-07T03:00:54;40.20;;;20.60;;
2868;SDS011;1442;47.448;8.582;2022-12-07T03:03:25;37.33;;;20.47;;
2868;SDS011;1442;47.448;8.582;2022-12-07T03:05:59;35.17;;;18.60;;
2868;SDS011;1442;47.448;8.582;2022-12-07T03:08:30;34.20;;;19.48;;
2868;SDS011;1442;47.448;8.582;2022-12-07T03:11:00;34.85;;;19.38;;
2868;SDS011;1442;47.448;8.582;2022-12-07T03:13:30;38.05;;;20.40;;
2868;SDS011;1442;47.448;8.582;2022-12-07T03:16:02;38.33;;;20.27;;
2868;SDS011;1442;47.448;8.582;2022-12-07T03:18:31;36.75;;;20.83;;
2868;SDS011;1442;47.448;8.582;2022-12-07T03:21:02;34.38;;;20.02;;
2868;SDS011;1442;47.448;8.582;2022-12-07T03:23:30;39.65;;;19.63;;
2868;SDS011;1442;47.448;8.582;2022-12-07T03:26:00;39.67;;;20.60;;
2868;SDS011;1442;47.448;8.582;2022-12-07T03:28:29;33.45;;;19.85;;
2868;SDS011;1442;47.448;8.582;2022-12-07T03:30:59;33.80;;;19.15;;
2868;SDS011;1442;47.448;8.582;2022-12-07T03:33:28;38.13;;;20.90;;
2868;SDS011;1442;47.448;8.582;2022-12-07T03:36:00;37.22;;;20.88;;
2868;SDS011;1442;47.448;8.582;2022-12-07T03:38:29;40.78;;;21.67;;
2868;SDS011;1442;47.448;8.582;2022-12-07T03:40:58;36.22;;;19.67;;
2868;SDS011;1442;47.448;8.582;2022-12-07T03:43:27;35.33;;;20.58;;
2868;SDS011;1442;47.448;8.582;2022-12-07T03:45:57;38.55;;;21.00;;
2868;SDS011;1442;47.448;8.582;2022-12-07T03:48:31;37.15;;;19.70;;
2868;SDS011;1442;47.448;8.582;2022-12-07T03:51:04;36.30;;;20.17;;
2868;SDS011;1442;47.448;8.582;2022-12-07T03:53:34;36.90;;;20.25;;
2868;SDS011;1442;47.448;8.582;2022-12-07T03:56:03;35.92;;;19.92;;
2868;SDS011;1442;47.448;8.582;2022-12-07T03:58:30;38.97;;;21.30;;
2868;SDS011;1442;47.448;8.582;2022-12-07T04:00:58;35.75;;;19.80;;
2868;SDS011;1442;47.448;8.582;2022-12-07T04:03:25;41.80;;;20.85;;
2868;SDS011;1442;47.448;8.582;2022-12-07T04:05:52;40.10;;;20.67;;
2868;SDS011;1442;47.448;8.582;2022-12-07T04:08:21;37.58;;;21.02;;
2868;SDS011;1442;47.448;8.582;2022-12-07T04:10:48;37.75;;;21.25;;
2868;SDS011;1442;47.448;8.582;2022-12-07T04:13:15;39.38;;;21.40;;
2868;SDS011;1442;47.448;8.582;2022-12-07T04:15:42;37.08;;;20.70;;
2868;SDS011;1442;47.448;8.582;2022-12-07T04:18:09;33.03;;;19.00;;
2868;SDS011;1442;47.448;8.582;2022-12-07T04:20:36;42.70;;;20.52;;
2868;SDS011;1442;47.448;8.582;2022-12-07T04:23:04;35.83;;;19.58;;
2868;SDS011;1442;47.448;8.582;2022-12-07T04:25:32;38.08;;;20.73;;
2868;SDS011;1442;47.448;8.582;2022-12-07T04:27:59;37.20;;;20.17;;
2868;SDS011;1442;47.448;8.582;2022-12-07T04:30:26;37.60;;;20.40;;
2868;SDS011;1442;47.448;8.582;2022-12-07T04:32:54;35.42;;;20.13;;
2868;SDS011;1442;47.448;8.582;2022-12-07T04:35:21;33.65;;;18.95;;
2868;SDS011;1442;47.448;8.582;2022-12-07T04:37:48;36.90;;;19.85;;
2868;SDS011;1442;47.448;8.582;2022-12-07T04:40:15;40.70;;;22.10;;
2868;SDS011;1442;47.448;8.582;2022-12-07T04:42:43;40.55;;;20.30;;
2868;SDS011;1442;47.448;8.582;2022-12-07T04:45:11;40.13;;;20.90;;
2868;SDS011;1442;47.448;8.582;2022-12-07T04:47:38;39.03;;;21.00;;
2868;SDS011;1442;47.448;8.582;2022-12-07T04:50:05;41.70;;;20.45;;
2868;SDS011;1442;47.448;8.582;2022-12-07T04:52:32;35.13;;;19.80;;
2868;SDS011;1442;47.448;8.582;2022-12-07T04:55:00;39.22;;;20.65;;
2868;SDS011;1442;47.448;8.582;2022-12-07T04:57:27;41.30;;;21.65;;
2868;SDS011;1442;47.448;8.582;2022-12-07T04:59:55;38.00;;;20.58;;
2868;SDS011;1442;47.448;8.582;2022-12-07T05:02:22;38.90;;;21.13;;
2868;SDS011;1442;47.448;8.582;2022-12-07T05:04:49;43.80;;;21.55;;
2868;SDS011;1442;47.448;8.582;2022-12-07T05:07:16;40.28;;;21.13;;
2868;SDS011;1442;47.448;8.582;2022-12-07T05:09:44;40.70;;;20.75;;
2868;SDS011;1442;47.448;8.582;2022-12-07T05:12:11;38.20;;;19.75;;
2868;SDS011;1442;47.448;8.582;2022-12-07T05:14:38;51.83;;;21.15;;
2868;SDS011;1442;47.448;8.582;2022-12-07T05:17:06;42.22;;;21.23;;
2868;SDS011;1442;47.448;8.582;2022-12-07T05:19:33;39.60;;;20.08;;
2868;SDS011;1442;47.448;8.582;2022-12-07T05:22:01;39.63;;;21.05;;
2868;SDS011;1442;47.448;8.582;2022-12-07T05:24:28;40.92;;;21.23;;
2868;SDS011;1442;47.448;8.582;2022-12-07T05:26:55;38.97;;;19.35;;
2868;SDS011;1442;47.448;8.582;2022-12-07T05:29:22;39.28;;;20.58;;
2868;SDS011;1442;47.448;8.582;2022-12-07T05:31:49;37.95;;;19.40;;
2868;SDS011;1442;47.448;8.582;2022-12-07T05:34:18;38.88;;;20.02;;
2868;SDS011;1442;47.448;8.582;2022-12-07T05:36:45;37.17;;;19.40;;
2868;SDS011;1442;47.448;8.582;2022-12-07T05:39:12;43.78;;;20.88;;
2868;SDS011;1442;47.448;8.582;2022-12-07T05:41:39;39.65;;;20.42;;
2868;SDS011;1442;47.448;8.582;2022-12-07T05:44:24;36.38;;;18.85;;
2868;SDS011;1442;47.448;8.582;2022-12-07T05:46:51;35.53;;;19.45;;
2868;SDS011;1442;47.448;8.582;2022-12-07T05:49:19;35.90;;;18.90;;
2868;SDS011;1442;47.448;8.582;2022-12-07T05:51:47;35.47;;;18.73;;
2868;SDS011;1442;47.448;8.582;2022-12-07T05:54:14;37.47;;;19.15;;
2868;SDS011;1442;47.448;8.582;2022-12-07T05:56:41;37.92;;;19.48;;
2868;SDS011;1442;47.448;8.582;2022-12-07T05:59:08;36.10;;;19.88;;
2868;SDS011;1442;47.448;8.582;2022-12-07T06:01:53;34.85;;;18.80;;
2868;SDS011;1442;47.448;8.582;2022-12-07T06:04:22;34.55;;;18.88;;
2868;SDS011;1442;47.448;8.582;2022-12-07T06:06:49;33.58;;;18.45;;
2868;SDS011;1442;47.448;8.582;2022-12-07T06:09:16;36.10;;;18.77;;
2868;SDS011;1442;47.448;8.582;2022-12-07T06:11:44;32.10;;;17.17;;
2868;SDS011;1442;47.448;8.582;2022-12-07T06:14:28;38.45;;;19.05;;
2868;SDS011;1442;47.448;8.582;2022-12-07T06:16:56;36.63;;;18.05;;
2868;SDS011;1442;47.448;8.582;2022-12-07T06:19:24;35.63;;;18.67;;
2868;SDS011;1442;47.448;8.582;2022-12-07T06:21:51;33.53;;;18.23;;
2868;SDS011;1442;47.448;8.582;2022-12-07T06:24:19;37.55;;;20.08;;
2868;SDS011;1442;47.448;8.582;2022-12-07T06:26:46;44.15;;;21.25;;
2868;SDS011;1442;47.448;8.582;2022-12-07T06:29:13;37.20;;;20.27;;
2868;SDS011;1442;47.448;8.582;2022-12-07T06:31:40;42.13;;;20.88;;
2868;SDS011;1442;47.448;8.582;2022-12-07T06:34:09;38.47;;;20.35;;
2868;SDS011;1442;47.448;8.582;2022-12-07T06:36:37;42.67;;;20.95;;
2868;SDS011;1442;47.448;8.582;2022-12-07T06:39:05;42.65;;;21.10;;
2868;SDS011;1442;47.448;8.582;2022-12-07T06:41:34;34.78;;;20.02;;
2868;SDS011;1442;47.448;8.582;2022-12-07T06:44:01;41.95;;;21.20;;
2868;SDS011;1442;47.448;8.582;2022-12-07T06:46:28;38.05;;;21.55;;
2868;SDS011;1442;47.448;8.582;2022-12-07T06:48:55;34.30;;;19.85;;
2868;SDS011;1442;47.448;8.582;2022-12-07T06:51:22;38.67;;;21.23;;
2868;SDS011;1442;47.448;8.582;2022-12-07T06:53:51;35.20;;;19.52;;
2868;SDS011;1442;47.448;8.582;2022-12-07T06:56:18;34.30;;;19.88;;
2868;SDS011;1442;47.448;8.582;2022-12-07T06:58:45;39.00;;;19.73;;
2868;SDS011;1442;47.448;8.582;2022-12-07T07:01:13;37.58;;;19.73;;
2868;SDS011;1442;47.448;8.582;2022-12-07T07:03:41;41.47;;;20.60;;
2868;SDS011;1442;47.448;8.582;2022-12-07T07:06:08;37.65;;;20.83;;
2868;SDS011;1442;47.448;8.582;2022-12-07T07:08:35;35.97;;;19.80;;
2868;SDS011;1442;47.448;8.582;2022-12-07T07:11:05;37.35;;;20.67;;
2868;SDS011;1442;47.448;8.582;2022-12-07T07:13:32;37.92;;;19.30;;
2868;SDS011;1442;47.448;8.582;2022-12-07T07:15:59;34.70;;;19.17;;
2868;SDS011;1442;47.448;8.582;2022-12-07T07:18:27;38.33;;;21.02;;
2868;SDS011;1442;47.448;8.582;2022-12-07T07:20:54;38.72;;;20.52;;
2868;SDS011;1442;47.448;8.582;2022-12-07T07:23:21;37.25;;;20.45;;
2868;SDS011;1442;47.448;8.582;2022-12-07T07:25:49;41.42;;;21.50;;
2868;SDS011;1442;47.448;8.582;2022-12-07T07:28:17;38.60;;;20.60;;
2868;SDS011;1442;47.448;8.582;2022-12-07T07:30:44;49.83;;;22.55;;
2868;SDS011;1442;47.448;8.582;2022-12-07T07:33:12;45.72;;;22.63;;
2868;SDS011;1442;47.448;8.582;2022-12-07T07:35:39;43.75;;;23.38;;
2868;SDS011;1442;47.448;8.582;2022-12-07T07:38:06;42.65;;;21.85;;
2868;SDS011;1442;47.448;8.582;2022-12-07T07:40:33;44.05;;;22.27;;
2868;SDS011;1442;47.448;8.582;2022-12-07T07:43:01;43.95;;;22.67;;
2868;SDS011;1442;47.448;8.582;2022-12-07T07:45:29;58.88;;;23.75;;
2868;SDS011;1442;47.448;8.582;2022-12-07T07:47:56;68.93;;;25.35;;
2868;SDS011;1442;47.448;8.582;2022-12-07T07:50:23;56.42;;;24.15;;
2868;SDS011;1442;47.448;8.582;2022-12-07T07:52:50;50.42;;;23.38;;
2868;SDS011;1442;47.448;8.582;2022-12-07T07:55:18;46.83;;;24.10;;
2868;SDS011;1442;47.448;8.582;2022-12-07T07:57:45;43.88;;;23.55;;
2868;SDS011;1442;47.448;8.582;2022-12-07T08:00:13;50.17;;;21.65;;
2868;SDS011;1442;47.448;8.582;2022-12-07T08:02:43;41.63;;;22.52;;
2868;SDS011;1442;47.448;8.582;2022-12-07T08:05:11;44.90;;;23.73;;
2868;SDS011;1442;47.448;8.582;2022-12-07T08:07:39;45.55;;;22.88;;
2868;SDS011;1442;47.448;8.582;2022-12-07T08:10:07;47.95;;;24.33;;
2868;SDS011;1442;47.448;8.582;2022-12-07T08:12:37;46.38;;;22.08;;
2868;SDS011;1442;47.448;8.582;2022-12-07T08:15:25;50.15;;;24.38;;
2868;SDS011;1442;47.448;8.582;2022-12-07T08:17:53;49.28;;;24.83;;
2868;SDS011;1442;47.448;8.582;2022-12-07T08:20:20;47.83;;;23.80;;
2868;SDS011;1442;47.448;8.582;2022-12-07T08:22:48;44.65;;;22.75;;
2868;SDS011;1442;47.448;8.582;2022-12-07T08:25:15;42.83;;;22.77;;
2868;SDS011;1442;47.448;8.582;2022-12-07T08:27:42;44.35;;;23.63;;
2868;SDS011;1442;47.448;8.582;2022-12-07T08:30:09;51.65;;;22.63;;
2868;SDS011;1442;47.448;8.582;2022-12-07T08:32:36;45.85;;;23.17;;
2868;SDS011;1442;47.448;8.582;2022-12-07T08:35:05;40.65;;;22.20;;
2868;SDS011;1442;47.448;8.582;2022-12-07T08:37:33;44.10;;;21.83;;
2868;SDS011;1442;47.448;8.582;2022-12-07T08:40:00;62.90;;;24.33;;
2868;SDS011;1442;47.448;8.582;2022-12-07T08:42:27;80.90;;;25.63;;
2868;SDS011;1442;47.448;8.582;2022-12-07T08:45:02;74.35;;;26.55;;
2868;SDS011;1442;47.448;8.582;2022-12-07T08:47:29;57.15;;;23.63;;
2868;SDS011;1442;47.448;8.582;2022-12-07T08:49:57;47.30;;;23.90;;
2868;SDS011;1442;47.448;8.582;2022-12-07T08:52:29;47.08;;;23.50;;
2868;SDS011;1442;47.448;8.582;2022-12-07T08:54:57;49.55;;;23.58;;
2868;SDS011;1442;47.448;8.582;2022-12-07T08:57:24;48.08;;;23.58;;
2868;SDS011;1442;47.448;8.582;2022-12-07T08:59:51;44.90;;;23.27;;
2868;SDS011;1442;47.448;8.582;2022-12-07T09:02:18;46.10;;;22.25;;
2868;SDS011;1442;47.448;8.582;2022-12-07T09:04:46;44.30;;;24.30;;
2868;SDS011;1442;47.448;8.582;2022-12-07T09:07:13;40.47;;;21.60;;
2868;SDS011;1442;47.448;8.582;2022-12-07T09:09:41;42.47;;;21.80;;
2868;SDS011;1442;47.448;8.582;2022-12-07T09:12:08;41.42;;;22.30;;
2868;SDS011;1442;47.448;8.582;2022-12-07T09:14:36;40.88;;;23.20;;
2868;SDS011;1442;47.448;8.582;2022-12-07T09:17:06;45.35;;;21.70;;
2868;SDS011;1442;47.448;8.582;2022-12-07T09:19:34;43.70;;;22.35;;
2868;SDS011;1442;47.448;8.582;2022-12-07T09:22:01;42.45;;;22.02;;
2868;SDS011;1442;47.448;8.582;2022-12-07T09:24:29;44.97;;;22.08;;
2868;SDS011;1442;47.448;8.582;2022-12-07T09:26:58;40.00;;;22.50;;
2868;SDS011;1442;47.448;8.582;2022-12-07T09:29:25;40.58;;;20.90;;
2868;SDS011;1442;47.448;8.582;2022-12-07T09:31:52;42.97;;;22.58;;
2868;SDS011;1442;47.448;8.582;2022-12-07T09:34:19;38.70;;;20.90;;
2868;SDS011;1442;47.448;8.582;2022-12-07T09:36:47;43.63;;;22.08;;
2868;SDS011;1442;47.448;8.582;2022-12-07T09:39:14;40.60;;;21.20;;
2868;SDS011;1442;47.448;8.582;2022-12-07T09:41:42;51.78;;;23.58;;
2868;SDS011;1442;47.448;8.582;2022-12-07T09:44:11;45.03;;;22.77;;
2868;SDS011;1442;47.448;8.582;2022-12-07T09:46:39;42.00;;;22.20;;
2868;SDS011;1442;47.448;8.582;2022-12-07T09:49:09;46.72;;;22.38;;
2868;SDS011;1442;47.448;8.582;2022-12-07T09:51:38;47.30;;;23.35;;
2868;SDS011;1442;47.448;8.582;2022-12-07T09:54:05;46.65;;;23.58;;
2868;SDS011;1442;47.448;8.582;2022-12-07T09:56:33;43.78;;;23.73;;
2868;SDS011;1442;47.448;8.582;2022-12-07T09:59:00;46.78;;;24.13;;
2868;SDS011;1442;47.448;8.582;2022-12-07T10:01:30;45.22;;;23.33;;
2868;SDS011;1442;47.448;8.582;2022-12-07T10:03:59;46.28;;;25.63;;
2868;SDS011;1442;47.448;8.582;2022-12-07T10:06:27;48.35;;;23.17;;
2868;SDS011;1442;47.448;8.582;2022-12-07T10:08:55;47.20;;;23.40;;
2868;SDS011;1442;47.448;8.582;2022-12-07T10:11:22;48.58;;;24.13;;
2868;SDS011;1442;47.448;8.582;2022-12-07T10:13:51;41.30;;;22.15;;
2868;SDS011;1442;47.448;8.582;2022-12-07T10:19:18;40.83;;;21.20;;
2868;SDS011;1442;47.448;8.582;2022-12-07T10:21:58;47.90;;;23.80;;
2868;SDS011;1442;47.448;8.582;2022-12-07T10:24:26;36.55;;;20.48;;
2868;SDS011;1442;47.448;8.582;2022-12-07T10:26:53;47.00;;;21.98;;
2868;SDS011;1442;47.448;8.582;2022-12-07T10:29:21;48.70;;;23.63;;
2868;SDS011;1442;47.448;8.582;2022-12-07T10:31:50;44.63;;;22.65;;
2868;SDS011;1442;47.448;8.582;2022-12-07T10:34:22;50.20;;;24.15;;
2868;SDS011;1442;47.448;8.582;2022-12-07T10:36:50;42.90;;;21.70;;
2868;SDS011;1442;47.448;8.582;2022-12-07T10:39:18;40.72;;;21.50;;
2868;SDS011;1442;47.448;8.582;2022-12-07T10:41:54;42.90;;;21.67;;
2868;SDS011;1442;47.448;8.582;2022-12-07T10:44:22;43.55;;;21.67;;
2868;SDS011;1442;47.448;8.582;2022-12-07T10:46:53;36.95;;;18.88;;
2868;SDS011;1442;47.448;8.582;2022-12-07T10:52:12;38.60;;;19.30;;
2868;SDS011;1442;47.448;8.582;2022-12-07T10:54:43;31.15;;;17.27;;
2868;SDS011;1442;47.448;8.582;2022-12-07T10:57:25;32.55;;;18.48;;
2868;SDS011;1442;47.448;8.582;2022-12-07T10:59:57;32.50;;;18.10;;
2868;SDS011;1442;47.448;8.582;2022-12-07T11:02:32;29.52;;;16.33;;
2868;SDS011;1442;47.448;8.582;2022-12-07T11:05:06;33.33;;;16.70;;
2868;SDS011;1442;47.448;8.582;2022-12-07T11:07:45;30.13;;;15.68;;
2868;SDS011;1442;47.448;8.582;2022-12-07T11:10:15;36.55;;;17.92;;
2868;SDS011;1442;47.448;8.582;2022-12-07T11:12:52;32.88;;;15.98;;
2868;SDS011;1442;47.448;8.582;2022-12-07T11:15:24;31.08;;;15.63;;
2868;SDS011;1442;47.448;8.582;2022-12-07T11:17:54;32.15;;;16.65;;
2868;SDS011;1442;47.448;8.582;2022-12-07T11:20:28;32.85;;;17.02;;
2868;SDS011;1442;47.448;8.582;2022-12-07T11:22:59;32.58;;;16.80;;
2868;SDS011;1442;47.448;8.582;2022-12-07T11:25:30;30.38;;;16.95;;
2868;SDS011;1442;47.448;8.582;2022-12-07T11:28:03;31.05;;;16.00;;
2868;SDS011;1442;47.448;8.582;2022-12-07T11:30:33;25.95;;;15.35;;
2868;SDS011;1442;47.448;8.582;2022-12-07T11:33:15;30.70;;;16.42;;
2868;SDS011;1442;47.448;8.582;2022-12-07T11:35:48;27.70;;;14.57;;
2868;SDS011;1442;47.448;8.582;2022-12-07T11:38:18;26.65;;;14.65;;
2868;SDS011;1442;47.448;8.582;2022-12-07T11:40:48;23.73;;;14.55;;
2868;SDS011;1442;47.448;8.582;2022-12-07T11:43:19;28.60;;;15.88;;
2868;SDS011;1442;47.448;8.582;2022-12-07T11:45:50;27.48;;;15.05;;
2868;SDS011;1442;47.448;8.582;2022-12-07T11:48:20;26.67;;;14.20;;
2868;SDS011;1442;47.448;8.582;2022-12-07T11:50:50;26.08;;;13.52;;
2868;SDS011;1442;47.448;8.582;2022-12-07T11:53:20;29.17;;;14.40;;
2868;SDS011;1442;47.448;8.582;2022-12-07T11:55:51;24.30;;;13.25;;
2868;SDS011;1442;47.448;8.582;2022-12-07T11:58:26;23.10;;;13.07;;
2868;SDS011;1442;47.448;8.582;2022-12-07T12:00:55;29.25;;;13.60;;
2868;SDS011;1442;47.448;8.582;2022-12-07T12:03:30;24.05;;;11.63;;
2868;SDS011;1442;47.448;8.582;2022-12-07T12:05:58;20.10;;;11.80;;
2868;SDS011;1442;47.448;8.582;2022-12-07T12:08:27;24.48;;;12.48;;
2868;SDS011;1442;47.448;8.582;2022-12-07T12:10:58;21.73;;;12.52;;
2868;SDS011;1442;47.448;8.582;2022-12-07T12:16:26;20.52;;;10.82;;
2868;SDS011;1442;47.448;8.582;2022-12-07T12:19:04;17.48;;;10.32;;
2868;SDS011;1442;47.448;8.582;2022-12-07T12:21:38;16.85;;;8.95;;
2868;SDS011;1442;47.448;8.582;2022-12-07T12:24:09;15.15;;;8.88;;
2868;SDS011;1442;47.448;8.582;2022-12-07T12:26:37;13.75;;;7.93;;
2868;SDS011;1442;47.448;8.582;2022-12-07T12:29:05;14.25;;;8.55;;
2868;SDS011;1442;47.448;8.582;2022-12-07T12:31:35;15.23;;;9.13;;
2868;SDS011;1442;47.448;8.582;2022-12-07T12:34:04;12.02;;;7.78;;
2868;SDS011;1442;47.448;8.582;2022-12-07T12:36:45;14.80;;;9.02;;
2868;SDS011;1442;47.448;8.582;2022-12-07T12:39:14;15.20;;;8.93;;
2868;SDS011;1442;47.448;8.582;2022-12-07T12:41:59;14.98;;;9.38;;
2868;SDS011;1442;47.448;8.582;2022-12-07T12:44:39;20.23;;;9.63;;
2868;SDS011;1442;47.448;8.582;2022-12-07T12:55:23;17.13;;;8.82;;
2868;SDS011;1442;47.448;8.582;2022-12-07T13:00:36;15.00;;;9.20;;
2868;SDS011;1442;47.448;8.582;2022-12-07T13:03:04;14.85;;;9.13;;
2868;SDS011;1442;47.448;8.582;2022-12-07T13:05:31;15.32;;;8.77;;
2868;SDS011;1442;47.448;8.582;2022-12-07T13:08:00;14.52;;;9.10;;
2868;SDS011;1442;47.448;8.582;2022-12-07T13:10:36;13.63;;;8.30;;
2868;SDS011;1442;47.448;8.582;2022-12-07T13:13:08;13.77;;;8.65;;
2868;SDS011;1442;47.448;8.582;2022-12-07T13:15:52;16.08;;;9.70;;
2868;SDS011;1442;47.448;8.582;2022-12-07T13:18:23;15.73;;;9.05;;
2868;SDS011;1442;47.448;8.582;2022-12-07T13:20:55;19.10;;;9.38;;
2868;SDS011;1442;47.448;8.582;2022-12-07T13:23:23;16.02;;;9.38;;
2868;SDS011;1442;47.448;8.582;2022-12-07T13:25:55;16.38;;;9.75;;
2868;SDS011;1442;47.448;8.582;2022-12-07T13:31:03;14.85;;;9.10;;
2868;SDS011;1442;47.448;8.582;2022-12-07T13:33:34;13.98;;;8.55;;
2868;SDS011;1442;47.448;8.582;2022-12-07T13:36:01;18.42;;;9.13;;
2868;SDS011;1442;47.448;8.582;2022-12-07T13:38:29;18.13;;;9.48;;
2868;SDS011;1442;47.448;8.582;2022-12-07T13:41:10;15.13;;;9.02;;
2868;SDS011;1442;47.448;8.582;2022-12-07T13:43:45;13.70;;;8.35;;
2868;SDS011;1442;47.448;8.582;2022-12-07T13:46:12;16.88;;;9.70;;
2868;SDS011;1442;47.448;8.582;2022-12-07T13:48:43;15.75;;;8.68;;
2868;SDS011;1442;47.448;8.582;2022-12-07T13:51:16;13.50;;;8.30;;
2868;SDS011;1442;47.448;8.582;2022-12-07T13:53:46;13.65;;;8.68;;
2868;SDS011;1442;47.448;8.582;2022-12-07T13:56:14;14.32;;;8.10;;
2868;SDS011;1442;47.448;8.582;2022-12-07T13:58:41;12.27;;;8.27;;
2868;SDS011;1442;47.448;8.582;2022-12-07T14:01:09;12.35;;;7.13;;
2868;SDS011;1442;47.448;8.582;2022-12-07T14:03:36;12.75;;;7.80;;
2868;SDS011;1442;47.448;8.582;2022-12-07T14:06:11;13.13;;;7.35;;
2868;SDS011;1442;47.448;8.582;2022-12-07T14:08:40;12.15;;;8.18;;
2868;SDS011;1442;47.448;8.582;2022-12-07T14:11:08;13.25;;;7.57;;
2868;SDS011;1442;47.448;8.582;2022-12-07T14:13:39;11.48;;;7.15;;
2868;SDS011;1442;47.448;8.582;2022-12-07T14:16:17;12.90;;;7.70;;
2868;SDS011;1442;47.448;8.582;2022-12-07T14:18:45;12.73;;;7.72;;
2868;SDS011;1442;47.448;8.582;2022-12-07T14:21:14;11.40;;;7.55;;
2868;SDS011;1442;47.448;8.582;2022-12-07T14:23:42;12.68;;;7.78;;
2868;SDS011;1442;47.448;8.582;2022-12-07T14:26:11;12.27;;;7.50;;
2868;SDS011;1442;47.448;8.582;2022-12-07T14:28:40;12.45;;;7.40;;
2868;SDS011;1442;47.448;8.582;2022-12-07T14:31:10;14.75;;;7.85;;
2868;SDS011;1442;47.448;8.582;2022-12-07T14:33:38;13.27;;;7.68;;
2868;SDS011;1442;47.448;8.582;2022-12-07T14:36:05;15.52;;;7.95;;
2868;SDS011;1442;47.448;8.582;2022-12-07T14:38:33;12.38;;;7.55;;
2868;SDS011;1442;47.448;8.582;2022-12-07T14:41:00;12.77;;;7.35;;
2868;SDS011;1442;47.448;8.582;2022-12-07T14:43:42;13.32;;;8.18;;
2868;SDS011;1442;47.448;8.582;2022-12-07T14:46:09;14.05;;;7.00;;
2868;SDS011;1442;47.448;8.582;2022-12-07T14:48:36;15.65;;;8.32;;
2868;SDS011;1442;47.448;8.582;2022-12-07T14:51:04;12.98;;;7.97;;
2868;SDS011;1442;47.448;8.582;2022-12-07T14:53:33;12.95;;;7.93;;
2868;SDS011;1442;47.448;8.582;2022-12-07T14:56:00;12.35;;;7.95;;
2868;SDS011;1442;47.448;8.582;2022-12-07T14:58:27;13.15;;;8.25;;
2868;SDS011;1442;47.448;8.582;2022-12-07T15:00:56;13.07;;;8.50;;
2868;SDS011;1442;47.448;8.582;2022-12-07T15:03:23;13.43;;;7.88;;
2868;SDS011;1442;47.448;8.582;2022-12-07T15:05:50;18.25;;;8.60;;
2868;SDS011;1442;47.448;8.582;2022-12-07T15:08:17;10.60;;;7.53;;
2868;SDS011;1442;47.448;8.582;2022-12-07T15:10:44;15.45;;;8.93;;
2868;SDS011;1442;47.448;8.582;2022-12-07T15:13:11;12.88;;;7.93;;
2868;SDS011;1442;47.448;8.582;2022-12-07T15:16:12;13.75;;;8.23;;
2868;SDS011;1442;47.448;8.582;2022-12-07T15:18:40;15.20;;;8.85;;
2868;SDS011;1442;47.448;8.582;2022-12-07T15:21:09;14.52;;;9.05;;
2868;SDS011;1442;47.448;8.582;2022-12-07T15:23:37;15.82;;;8.95;;
2868;SDS011;1442;47.448;8.582;2022-12-07T15:26:04;16.17;;;9.18;;
2868;SDS011;1442;47.448;8.582;2022-12-07T15:28:31;15.52;;;8.50;;